Terminal Aerodrome Forecast
Issued by NWS Twin Cities, MN

Home | Current Version | Previous Version | Graphics & Text | Print | Product List | Glossary On
Versions: 1 2 3 4 5 6 7 8 9 10 11 12 13 14
993
FTUS43 KMPX 142322
TAFEAU
TAF
KEAU 142322Z 1500/1524 21008KT P6SM SKC
     FM150900 24004KT P6SM FEW150
     FM151600 28007KT P6SM VCSH SCT015 BKN025
     FM151900 32010G18KT P6SM -SN SCT010 BKN020=

USA.gov is the U.S. government's official web portal to all federal, state and local government web resources and services.